createdAt,value
2023-03-11T00:00:18.782Z,100.00
2023-03-11T00:02:51.290Z,100.00
2023-03-11T00:05:21.801Z,100.00
2023-03-11T00:07:48.320Z,100.00
2023-03-11T00:10:18.316Z,100.00
2023-03-11T00:12:44.866Z,100.00
2023-03-11T00:15:12.254Z,100.00
2023-03-11T00:17:39.128Z,100.00
2023-03-11T00:20:07.281Z,100.00
2023-03-11T00:22:33.867Z,100.00
2023-03-11T00:25:00.327Z,100.00
2023-03-11T00:27:26.815Z,100.00
2023-03-11T00:29:53.361Z,100.00
2023-03-11T00:32:19.955Z,100.00
2023-03-11T00:34:46.449Z,100.00
2023-03-11T00:37:12.942Z,100.00
2023-03-11T00:39:39.400Z,100.00
2023-03-11T00:42:06.011Z,100.00
2023-03-11T00:44:32.503Z,100.00
2023-03-11T00:46:59.220Z,100.00
2023-03-11T00:49:25.695Z,100.00
2023-03-11T00:51:52.166Z,100.00
2023-03-11T00:54:18.667Z,100.00
2023-03-11T00:56:45.243Z,100.00
2023-03-11T00:59:12.242Z,100.00
2023-03-11T01:01:38.843Z,100.00
2023-03-11T01:04:05.633Z,100.00
2023-03-11T01:06:44.476Z,100.00
2023-03-11T01:09:11.839Z,100.00
2023-03-11T01:11:38.326Z,100.00
2023-03-11T01:14:05.175Z,100.00
2023-03-11T01:16:31.892Z,100.00
2023-03-11T01:18:58.430Z,100.00
2023-03-11T01:21:24.880Z,100.00
2023-03-11T01:23:51.387Z,100.00
2023-03-11T01:26:17.934Z,100.00
2023-03-11T01:28:44.453Z,100.00
2023-03-11T01:31:11.031Z,100.00
2023-03-11T01:33:38.225Z,100.00
2023-03-11T01:36:05.634Z,100.00
2023-03-11T01:38:32.133Z,100.00
2023-03-11T01:40:58.582Z,100.00
2023-03-11T01:43:37.053Z,100.00
2023-03-11T01:46:25.673Z,100.00
2023-03-11T01:49:00.498Z,100.00
2023-03-11T01:51:35.599Z,100.00
2023-03-11T01:54:11.514Z,100.00
2023-03-11T01:56:39.914Z,100.00
2023-03-11T01:59:08.826Z,100.00
2023-03-11T02:01:41.499Z,100.00
2023-03-11T02:04:08.245Z,100.00
2023-03-11T02:06:34.777Z,100.00
2023-03-11T02:09:02.066Z,100.00
2023-03-11T02:11:31.052Z,100.00
2023-03-11T02:14:03.055Z,100.00
2023-03-11T02:16:29.680Z,100.00
2023-03-11T02:19:00.488Z,100.00
2023-03-11T02:21:32.719Z,100.00
2023-03-11T02:24:25.032Z,100.00
2023-03-11T02:27:12.003Z,100.00
2023-03-11T02:29:39.132Z,100.00
2023-03-11T02:32:08.390Z,100.00
2023-03-11T02:34:39.126Z,100.00
2023-03-11T02:37:12.878Z,100.00
2023-03-11T02:39:45.293Z,100.00
2023-03-11T02:42:35.956Z,100.00
2023-03-11T02:45:12.312Z,100.00
2023-03-11T02:47:40.463Z,100.00
2023-03-11T02:50:12.149Z,100.00
2023-03-11T02:52:39.179Z,100.00
2023-03-11T02:55:10.256Z,100.00
2023-03-11T02:57:38.843Z,100.00
2023-03-11T03:00:12.754Z,100.00
2023-03-11T03:02:45.506Z,100.00
2023-03-11T03:05:13.159Z,100.00
2023-03-11T03:07:40.490Z,100.00
2023-03-11T03:10:08.231Z,100.00
2023-03-11T03:12:35.739Z,100.00
2023-03-11T03:15:02.535Z,100.00
2023-03-11T03:17:29.235Z,100.00
2023-03-11T03:19:55.969Z,100.00
2023-03-11T03:22:22.633Z,100.00
2023-03-11T03:24:49.338Z,100.00
2023-03-11T03:27:16.084Z,100.00
2023-03-11T03:29:42.671Z,100.00
2023-03-11T03:32:09.376Z,100.00
2023-03-11T03:34:36.092Z,100.00
2023-03-11T03:37:02.755Z,100.00
2023-03-11T03:39:30.742Z,100.00
2023-03-11T03:41:58.156Z,100.00
2023-03-11T03:44:26.597Z,100.00
2023-03-11T03:46:53.401Z,100.00
2023-03-11T03:49:20.117Z,100.00
2023-03-11T03:51:47.264Z,100.00
2023-03-11T03:54:22.632Z,100.00
2023-03-11T03:56:49.994Z,100.00
2023-03-11T03:59:17.087Z,100.00
2023-03-11T04:01:49.605Z,100.00
2023-03-11T04:04:17.551Z,100.00
2023-03-11T04:06:44.169Z,100.00
2023-03-11T04:09:12.002Z,100.00
2023-03-11T04:11:38.779Z,100.00
2023-03-11T04:14:05.990Z,100.00
2023-03-11T04:16:36.795Z,100.00
2023-03-11T04:19:09.431Z,100.00
2023-03-11T04:21:36.629Z,100.00
2023-03-11T04:24:04.357Z,100.00
2023-03-11T04:26:34.969Z,100.00
2023-03-11T04:29:02.740Z,100.00
2023-03-11T04:31:33.857Z,100.00
2023-03-11T04:34:04.715Z,100.00
2023-03-11T04:36:31.409Z,100.00
2023-03-11T04:38:58.199Z,100.00
2023-03-11T04:41:26.877Z,100.00
2023-03-11T04:43:54.105Z,100.00
2023-03-11T04:46:21.220Z,100.00
2023-03-11T04:48:48.779Z,100.00
2023-03-11T04:51:15.483Z,100.00
2023-03-11T04:53:42.457Z,100.00
2023-03-11T04:56:09.261Z,100.00
2023-03-11T04:58:38.283Z,100.00
2023-03-11T05:01:06.509Z,100.00
2023-03-11T05:03:35.550Z,100.00
2023-03-11T05:06:02.130Z,100.00
2023-03-11T05:08:28.690Z,100.00
2023-03-11T05:10:55.433Z,100.00
2023-03-11T05:13:22.994Z,100.00
2023-03-11T05:15:51.772Z,100.00
2023-03-11T05:18:18.362Z,100.00
2023-03-11T05:20:45.669Z,100.00
2023-03-11T05:23:13.820Z,100.00
2023-03-11T05:25:40.863Z,100.00
2023-03-11T05:28:08.308Z,100.00
2023-03-11T05:30:40.432Z,100.00
2023-03-11T05:33:08.852Z,100.00
2023-03-11T05:35:35.986Z,100.00
2023-03-11T05:38:02.918Z,100.00
2023-03-11T05:40:30.482Z,100.00
2023-03-11T05:42:57.216Z,100.00
2023-03-11T05:45:25.378Z,100.00
2023-03-11T05:47:53.556Z,100.00
2023-03-11T05:50:20.319Z,100.00
2023-03-11T05:52:48.407Z,100.00
2023-03-11T05:55:15.612Z,100.00
2023-03-11T05:57:44.555Z,100.00
2023-03-11T06:00:11.866Z,100.00
2023-03-11T06:02:43.048Z,100.00
2023-03-11T06:05:13.903Z,100.00
2023-03-11T06:07:42.986Z,100.00
2023-03-11T06:10:10.740Z,100.00
2023-03-11T06:12:39.231Z,100.00
2023-03-11T06:15:27.532Z,100.00
2023-03-11T06:17:54.285Z,100.00
2023-03-11T06:20:21.502Z,100.00
2023-03-11T06:22:49.356Z,100.00
2023-03-11T06:25:16.329Z,100.00
2023-03-11T06:27:44.307Z,100.00
2023-03-11T06:30:11.848Z,100.00
2023-03-11T06:32:47.220Z,100.00
2023-03-11T06:35:14.508Z,100.00
2023-03-11T06:37:41.389Z,100.00
2023-03-11T06:40:10.104Z,100.00
2023-03-11T06:42:37.011Z,100.00
2023-03-11T06:45:04.994Z,100.00
2023-03-11T06:47:32.076Z,100.00
2023-03-11T06:49:59.921Z,100.00
2023-03-11T06:52:27.180Z,100.00
2023-03-11T06:54:55.632Z,100.00
2023-03-11T06:57:22.466Z,100.00
2023-03-11T06:59:50.910Z,100.00
2023-03-11T07:02:18.531Z,100.00
2023-03-11T07:04:52.137Z,100.00
2023-03-11T07:07:19.696Z,100.00
2023-03-11T07:09:46.361Z,100.00
2023-03-11T07:12:14.215Z,100.00
2023-03-11T07:14:40.884Z,100.00
2023-03-11T07:17:07.535Z,100.00
2023-03-11T07:19:39.062Z,100.00
2023-03-11T07:22:05.646Z,100.00
2023-03-11T07:24:32.243Z,100.00
2023-03-11T07:26:58.808Z,100.00
2023-03-11T07:29:25.459Z,100.00
2023-03-11T07:31:52.027Z,100.00
2023-03-11T07:34:18.982Z,100.00
2023-03-11T07:36:45.652Z,100.00
2023-03-11T07:39:19.966Z,100.00
2023-03-11T07:41:47.398Z,100.00
2023-03-11T07:44:15.831Z,100.00
2023-03-11T07:46:43.401Z,100.00
2023-03-11T07:49:10.503Z,100.00
2023-03-11T07:51:37.992Z,100.00
2023-03-11T07:54:05.221Z,100.00
2023-03-11T07:56:34.529Z,100.00
2023-03-11T07:59:02.770Z,100.00
2023-03-11T08:01:31.846Z,100.00
2023-03-11T08:03:58.506Z,100.00
2023-03-11T08:06:28.519Z,100.00
2023-03-11T08:08:55.133Z,100.00
2023-03-11T08:11:21.760Z,100.00
2023-03-11T08:13:49.161Z,100.00
2023-03-11T08:16:18.939Z,100.00
2023-03-11T08:18:50.206Z,100.00
2023-03-11T08:21:20.085Z,100.00
2023-03-11T08:23:46.741Z,100.00
2023-03-11T08:26:16.320Z,100.00
2023-03-11T08:28:42.970Z,100.00
2023-03-11T08:31:20.834Z,100.00
2023-03-11T08:33:49.914Z,100.00
2023-03-11T08:36:17.864Z,100.00
2023-03-11T08:38:44.597Z,100.00
2023-03-11T08:41:11.302Z,100.00
2023-03-11T08:43:38.366Z,100.00
2023-03-11T08:46:06.038Z,100.00
2023-03-11T08:48:33.257Z,100.00
2023-03-11T08:51:00.203Z,100.00
2023-03-11T08:53:26.860Z,100.00
2023-03-11T08:55:53.494Z,100.00
2023-03-11T08:58:21.046Z,100.00
2023-03-11T09:00:48.335Z,100.00
2023-03-11T09:03:15.300Z,100.00
2023-03-11T09:05:43.194Z,100.00
2023-03-11T09:08:09.781Z,100.00
2023-03-11T09:10:36.422Z,100.00
2023-03-11T09:13:03.433Z,100.00
2023-03-11T09:15:29.943Z,100.00
2023-03-11T09:17:56.518Z,100.00
2023-03-11T09:20:23.336Z,100.00
2023-03-11T09:22:49.950Z,100.00
2023-03-11T09:25:16.771Z,100.00
2023-03-11T09:27:44.063Z,100.00
2023-03-11T09:30:11.328Z,100.00
2023-03-11T09:32:37.983Z,100.00
2023-03-11T09:35:05.094Z,100.00
2023-03-11T09:37:31.791Z,100.00
2023-03-11T09:39:59.033Z,100.00
2023-03-11T09:42:43.373Z,100.00
2023-03-11T09:45:39.379Z,100.00
2023-03-11T09:48:22.747Z,100.00
2023-03-11T09:51:20.462Z,100.00
2023-03-11T09:53:52.070Z,100.00
2023-03-11T09:56:20.703Z,100.00
2023-03-11T09:58:48.554Z,100.00
2023-03-11T10:01:25.980Z,100.00
2023-03-11T10:03:56.511Z,100.00
2023-03-11T10:06:25.070Z,100.00
2023-03-11T10:09:14.017Z,100.00
2023-03-11T10:12:10.325Z,100.00
2023-03-11T10:15:07.018Z,100.00
2023-03-11T10:17:36.540Z,100.00
2023-03-11T10:20:19.936Z,100.00
2023-03-11T10:23:00.003Z,100.00
2023-03-11T10:25:29.748Z,100.00
2023-03-11T10:28:12.291Z,100.00
2023-03-11T10:30:52.880Z,100.00
2023-03-11T10:33:47.715Z,100.00
2023-03-11T10:36:21.258Z,100.00
2023-03-11T10:38:49.073Z,100.00
2023-03-11T10:41:15.602Z,100.00
2023-03-11T10:43:49.197Z,100.00
2023-03-11T10:46:20.645Z,100.00
2023-03-11T10:48:47.387Z,100.00
2023-03-11T10:51:19.254Z,100.00
2023-03-11T10:54:06.055Z,100.00
2023-03-11T10:56:41.227Z,100.00
2023-03-11T10:59:28.987Z,100.00
2023-03-11T11:02:24.177Z,100.00
2023-03-11T11:05:18.970Z,100.00
2023-03-11T11:07:51.463Z,100.00
2023-03-11T11:10:32.340Z,100.00
2023-03-11T11:13:12.593Z,100.00
2023-03-11T11:15:59.504Z,100.00
2023-03-11T11:18:49.457Z,100.00
2023-03-11T11:21:28.515Z,100.00
2023-03-11T11:24:18.285Z,100.00
2023-03-11T11:27:04.046Z,100.00
2023-03-11T11:29:32.344Z,100.00
2023-03-11T11:32:19.792Z,100.00
2023-03-11T11:34:53.863Z,100.00
2023-03-11T11:37:20.849Z,100.00
2023-03-11T11:39:54.102Z,100.00
2023-03-11T11:42:21.969Z,100.00
2023-03-11T11:44:58.944Z,100.00
2023-03-11T11:47:33.089Z,100.00
2023-03-11T11:50:03.239Z,100.00
2023-03-11T11:52:52.580Z,100.00
2023-03-11T11:55:29.040Z,100.00
2023-03-11T11:57:56.552Z,100.00
2023-03-11T12:00:34.470Z,100.00
2023-03-11T12:03:27.393Z,100.00
2023-03-11T12:06:04.912Z,100.00
2023-03-11T12:09:17.157Z,100.00
2023-03-11T12:11:55.118Z,100.00
2023-03-11T12:14:39.687Z,100.00
2023-03-11T12:17:08.495Z,100.00
2023-03-11T12:19:43.980Z,100.00
2023-03-11T12:22:13.424Z,100.00
2023-03-11T12:25:01.884Z,100.00
2023-03-11T12:27:47.808Z,100.00
2023-03-11T12:30:21.782Z,100.00
2023-03-11T12:32:56.291Z,100.00
2023-03-11T12:35:24.582Z,100.00
2023-03-11T12:38:04.681Z,100.00
2023-03-11T12:40:49.456Z,100.00
2023-03-11T12:43:31.338Z,100.00
2023-03-11T12:45:58.530Z,100.00
2023-03-11T12:48:44.434Z,100.00
2023-03-11T12:51:26.249Z,100.00
2023-03-11T12:53:54.520Z,100.00
2023-03-11T12:56:50.352Z,100.00
2023-03-11T12:59:32.136Z,100.00
2023-03-11T13:02:01.778Z,100.00
2023-03-11T13:04:49.813Z,100.00
2023-03-11T13:07:22.132Z,100.00
2023-03-11T13:10:07.089Z,100.00
2023-03-11T13:12:45.195Z,100.00
2023-03-11T13:15:21.014Z,100.00
2023-03-11T13:18:04.639Z,100.00
2023-03-11T13:20:40.224Z,100.00
2023-03-11T13:23:12.833Z,100.00
2023-03-11T13:25:56.480Z,100.00
2023-03-11T13:28:28.943Z,99.20
2023-03-11T13:31:19.432Z,100.00
2023-03-11T13:33:49.470Z,98.62
2023-03-11T13:36:38.105Z,100.00
2023-03-11T13:39:19.105Z,100.00
2023-03-11T13:41:46.204Z,92.41
2023-03-11T13:44:33.626Z,99.06
2023-03-11T13:47:07.254Z,96.25
2023-03-11T13:49:44.333Z,100.00
2023-03-11T13:53:03.410Z,100.00
2023-03-11T13:55:44.594Z,100.00
2023-03-11T13:58:22.504Z,100.00
2023-03-11T14:00:51.634Z,100.00
2023-03-11T14:03:18.830Z,97.68
2023-03-11T14:05:47.660Z,98.68
2023-03-11T14:08:30.841Z,99.04
2023-03-11T14:10:57.339Z,95.00
2023-03-11T14:13:25.977Z,97.50
2023-03-11T14:16:01.693Z,100.00
2023-03-11T14:18:39.517Z,100.00
2023-03-11T14:21:19.415Z,99.96
2023-03-11T14:23:52.413Z,95.26
2023-03-11T14:26:23.561Z,98.70
2023-03-11T14:28:52.955Z,100.00
2023-03-11T14:31:24.075Z,100.00
2023-03-11T14:33:57.369Z,100.00
2023-03-11T14:36:23.955Z,97.38
2023-03-11T14:38:50.496Z,98.26
2023-03-11T14:41:17.138Z,98.06
2023-03-11T14:43:49.460Z,93.77
2023-03-11T14:46:22.150Z,97.14
2023-03-11T14:48:48.685Z,97.86
2023-03-11T14:51:23.173Z,100.00
2023-03-11T14:53:55.801Z,100.00
2023-03-11T14:56:26.117Z,98.39
2023-03-11T14:59:07.668Z,100.00
2023-03-11T15:01:40.301Z,97.34
2023-03-11T15:04:12.979Z,97.97
2023-03-11T15:06:45.118Z,97.05
2023-03-11T15:09:15.363Z,97.43
2023-03-11T15:11:57.140Z,100.00
2023-03-11T15:14:29.538Z,100.00
2023-03-11T15:17:35.219Z,100.00
2023-03-11T15:20:04.191Z,96.87
2023-03-11T15:22:40.527Z,100.00
2023-03-11T15:25:19.207Z,100.00
2023-03-11T15:27:46.782Z,99.62
2023-03-11T15:30:19.912Z,98.72
2023-03-11T15:32:47.381Z,97.90
2023-03-11T15:35:21.735Z,100.00
2023-03-11T15:38:12.527Z,100.00
2023-03-11T15:40:45.575Z,92.05
2023-03-11T15:43:20.337Z,97.35
2023-03-11T15:45:47.232Z,97.01
2023-03-11T15:48:14.030Z,95.85
2023-03-11T15:50:53.387Z,97.27
2023-03-11T15:53:22.294Z,94.74
2023-03-11T15:55:49.561Z,92.45
2023-03-11T15:58:19.197Z,90.65
2023-03-11T16:00:54.968Z,91.78
2023-03-11T16:03:22.108Z,83.49
2023-03-11T16:05:49.310Z,84.94
2023-03-11T16:08:16.722Z,83.44
2023-03-11T16:10:43.636Z,83.53
2023-03-11T16:13:13.234Z,83.86
2023-03-11T16:15:40.553Z,84.76
2023-03-11T16:18:08.062Z,82.81
2023-03-11T16:20:55.211Z,89.44
2023-03-11T16:23:25.976Z,81.94
2023-03-11T16:25:58.517Z,85.47
2023-03-11T16:28:25.384Z,81.76
2023-03-11T16:30:52.111Z,82.38
2023-03-11T16:33:18.838Z,80.71
2023-03-11T16:35:46.470Z,80.91
2023-03-11T16:38:13.122Z,82.32
2023-03-11T16:40:40.073Z,80.32
2023-03-11T16:43:10.081Z,80.04
2023-03-11T16:45:37.184Z,82.45
2023-03-11T16:48:04.221Z,81.44
2023-03-11T16:50:31.959Z,82.29
2023-03-11T16:52:59.240Z,82.57
2023-03-11T16:55:27.263Z,81.90
2023-03-11T16:57:54.098Z,80.36
2023-03-11T17:00:20.974Z,83.03
2023-03-11T17:02:47.526Z,82.13
2023-03-11T17:05:14.165Z,79.41
2023-03-11T17:07:40.768Z,81.71
2023-03-11T17:10:09.052Z,78.97
2023-03-11T17:12:35.618Z,79.73
2023-03-11T17:15:02.430Z,80.52
2023-03-11T17:17:29.037Z,81.91
2023-03-11T17:19:55.550Z,81.94
2023-03-11T17:22:22.050Z,80.56
2023-03-11T17:24:48.556Z,82.26
2023-03-11T17:27:15.303Z,80.55
2023-03-11T17:29:41.990Z,81.97
2023-03-11T17:32:08.835Z,82.56
2023-03-11T17:34:35.603Z,82.13
2023-03-11T17:37:02.155Z,78.76
2023-03-11T17:39:31.314Z,82.22
2023-03-11T17:41:57.926Z,81.05
2023-03-11T17:44:24.487Z,81.05
2023-03-11T17:46:51.191Z,82.29
2023-03-11T17:49:17.795Z,81.45
2023-03-11T17:51:44.598Z,80.85
2023-03-11T17:54:11.181Z,81.57
2023-03-11T17:56:37.680Z,80.82
2023-03-11T17:59:04.256Z,80.96
2023-03-11T18:01:30.891Z,80.45
2023-03-11T18:03:57.542Z,81.55
2023-03-11T18:06:24.824Z,79.64
2023-03-11T18:08:51.436Z,81.17
2023-03-11T18:11:21.705Z,81.05
2023-03-11T18:13:48.973Z,82.02
2023-03-11T18:16:24.362Z,83.07
2023-03-11T18:18:51.957Z,81.22
2023-03-11T18:21:21.082Z,81.56
2023-03-11T18:23:48.285Z,81.69
2023-03-11T18:26:17.548Z,80.40
2023-03-11T18:28:44.332Z,82.09
2023-03-11T18:31:13.781Z,81.21
2023-03-11T18:33:42.636Z,81.42
2023-03-11T18:36:24.270Z,82.95
2023-03-11T18:38:52.877Z,80.91
2023-03-11T18:41:19.659Z,81.57
2023-03-11T18:43:46.927Z,80.86
2023-03-11T18:46:16.157Z,81.63
2023-03-11T18:48:43.011Z,81.21
2023-03-11T18:51:09.548Z,80.63
2023-03-11T18:53:36.594Z,79.45
2023-03-11T18:56:06.283Z,79.80
2023-03-11T18:58:33.168Z,77.98
2023-03-11T19:01:09.887Z,77.65
2023-03-11T19:03:36.643Z,77.76
2023-03-11T19:06:03.282Z,77.85
2023-03-11T19:08:30.077Z,78.92
2023-03-11T19:10:56.676Z,78.97
2023-03-11T19:13:23.350Z,77.61
2023-03-11T19:15:50.505Z,77.80
2023-03-11T19:18:17.170Z,77.25
2023-03-11T19:20:43.720Z,77.01
2023-03-11T19:23:10.319Z,76.69
2023-03-11T19:25:37.726Z,76.60
2023-03-11T19:28:04.475Z,77.80
2023-03-11T19:30:31.083Z,77.21
2023-03-11T19:32:57.663Z,77.37
2023-03-11T19:35:24.209Z,77.33
2023-03-11T19:37:50.966Z,77.47
2023-03-11T19:40:17.973Z,77.33
2023-03-11T19:42:44.533Z,77.80
2023-03-11T19:45:11.480Z,78.70
2023-03-11T19:47:38.918Z,78.88
2023-03-11T19:50:08.714Z,78.34
2023-03-11T19:52:35.826Z,78.08
2023-03-11T19:55:02.828Z,78.57
2023-03-11T19:57:34.022Z,78.56
2023-03-11T20:00:01.339Z,77.16
2023-03-11T20:02:28.214Z,77.61
2023-03-11T20:04:58.473Z,77.45
2023-03-11T20:07:28.354Z,79.59
2023-03-11T20:09:56.059Z,78.12
2023-03-11T20:12:23.558Z,78.34
2023-03-11T20:14:51.365Z,78.27
2023-03-11T20:20:00.184Z,79.77
2023-03-11T20:22:27.074Z,80.54
2023-03-11T20:24:53.973Z,80.29
2023-03-11T20:27:24.930Z,79.43
2023-03-11T20:29:52.131Z,80.48
2023-03-11T20:32:19.610Z,79.98
2023-03-11T20:34:47.437Z,82.38
2023-03-11T20:37:14.866Z,83.28
2023-03-11T20:39:43.552Z,84.51
2023-03-11T20:42:12.436Z,83.94
2023-03-11T20:44:40.196Z,84.55
2023-03-11T20:47:11.214Z,85.19
2023-03-11T20:49:38.359Z,85.56
2023-03-11T20:54:46.866Z,86.99
2023-03-11T20:57:14.888Z,87.89
2023-03-11T20:59:41.621Z,87.94
2023-03-11T21:02:12.195Z,88.12
2023-03-11T21:04:39.436Z,89.73
2023-03-11T21:07:06.430Z,88.84
2023-03-11T21:09:33.717Z,89.47
2023-03-11T21:12:02.539Z,90.43
2023-03-11T21:14:29.814Z,89.91
2023-03-11T21:16:57.368Z,90.16
2023-03-11T21:19:24.813Z,91.72
2023-03-11T21:21:51.742Z,91.79
2023-03-11T21:24:18.770Z,92.58
2023-03-11T21:26:46.270Z,92.91
2023-03-11T21:29:13.518Z,91.84
2023-03-11T21:31:40.430Z,92.65
2023-03-11T21:34:13.613Z,92.38
2023-03-11T21:36:40.702Z,93.35
2023-03-11T21:39:07.837Z,92.98
2023-03-11T21:41:34.546Z,93.76
2023-03-11T21:44:01.416Z,94.04
2023-03-11T21:46:30.784Z,94.63
2023-03-11T21:48:58.488Z,94.36
2023-03-11T21:51:25.873Z,93.79
2023-03-11T21:53:52.622Z,94.88
2023-03-11T21:56:19.553Z,94.69
2023-03-11T21:58:46.341Z,95.57
2023-03-11T22:01:13.025Z,95.04
2023-03-11T22:03:39.753Z,94.97
2023-03-11T22:06:12.320Z,95.00
2023-03-11T22:08:40.514Z,95.55
2023-03-11T22:11:09.681Z,94.52
2023-03-11T22:13:36.874Z,95.28
2023-03-11T22:16:06.972Z,95.47
2023-03-11T22:18:34.002Z,95.08
2023-03-11T22:21:01.693Z,95.36
2023-03-11T22:23:28.416Z,96.37
2023-03-11T22:25:55.125Z,95.73
2023-03-11T22:28:21.807Z,95.37
2023-03-11T22:30:48.374Z,95.95
2023-03-11T22:33:14.926Z,95.49
2023-03-11T22:35:41.529Z,96.02
2023-03-11T22:38:08.100Z,95.93
2023-03-11T22:40:34.935Z,96.46
2023-03-11T22:43:01.511Z,95.89
2023-03-11T22:45:28.088Z,96.53
2023-03-11T22:47:54.610Z,96.21
2023-03-11T22:50:21.153Z,96.90
2023-03-11T22:52:47.762Z,96.72
2023-03-11T22:55:14.302Z,96.89
2023-03-11T22:57:40.870Z,96.96
2023-03-11T23:00:16.605Z,97.76
2023-03-11T23:02:45.195Z,96.68
2023-03-11T23:05:15.712Z,96.65
2023-03-11T23:07:42.830Z,97.73
2023-03-11T23:10:11.552Z,97.05
2023-03-11T23:12:38.940Z,98.46
2023-03-11T23:15:08.675Z,97.89
2023-03-11T23:17:35.708Z,97.48
2023-03-11T23:20:03.571Z,97.83
2023-03-11T23:22:30.207Z,97.23
2023-03-11T23:25:00.622Z,97.73
2023-03-11T23:27:28.754Z,97.76
2023-03-11T23:29:55.340Z,97.48
2023-03-11T23:32:22.052Z,97.94
2023-03-11T23:34:48.569Z,97.91
2023-03-11T23:37:15.152Z,98.11
2023-03-11T23:39:41.690Z,97.77
2023-03-11T23:42:24.569Z,97.62
2023-03-11T23:44:53.093Z,97.75
2023-03-11T23:47:19.905Z,98.05
2023-03-11T23:49:46.518Z,98.68
2023-03-11T23:52:13.145Z,97.84
2023-03-11T23:54:39.643Z,98.62
2023-03-11T23:57:06.235Z,99.68
2023-03-11T23:59:32.824Z,99.59
